Time;durP1;ratioP1;P1;durP2;ratioP2;P2;SDS_P1;SDS_P2;PMS_P1;PMS_P2;Temp;Humidity;BMP_temperature;BMP_pressure;BME280_temperature;BME280_humidity;BME280_pressure;Samples;Min_cycle;Max_cycle;Signal;HPM_P1;HPM_P2
2022/11/17 00:01:54;;;;;;;0.03;0.03;;;10.50;99.90;;;;;;5096867;28;20230;-85
2022/11/17 00:04:20;;;;;;;0.10;0.10;;;10.40;99.90;;;;;;5095778;28;20208;-86
2022/11/17 00:06:46;;;;;;;0.10;0.10;;;10.40;99.90;;;;;;5093449;28;20238;-86
2022/11/17 00:09:16;;;;;;;0.10;0.10;;;10.40;99.90;;;;;;5096894;28;20206;-85
2022/11/17 00:14:31;;;;;;;0.00;0.00;;;10.50;99.90;;;;;;5107234;28;20195;-86
2022/11/17 00:17:00;;;;;;;0.10;0.10;;;10.60;99.90;;;;;;5101521;28;20179;-86
2022/11/17 00:22:11;;;;;;;0.10;0.10;;;10.20;99.90;;;;;;5092465;28;20237;-85
2022/11/17 00:24:37;;;;;;;0.10;0.10;;;10.10;99.90;;;;;;5099870;28;20168;-85
2022/11/17 00:27:02;;;;;;;0.10;0.10;;;10.00;99.90;;;;;;5077651;28;20180;-86
2022/11/17 00:29:29;;;;;;;0.10;0.10;;;10.00;99.90;;;;;;5096811;28;20264;-86
2022/11/17 00:34:39;;;;;;;0.10;0.10;;;10.20;99.90;;;;;;5092652;28;20248;-86
2022/11/17 00:37:05;;;;;;;0.00;0.00;;;10.10;99.90;;;;;;5104557;28;20593;-86
2022/11/17 00:39:31;;;;;;;0.10;0.10;;;10.10;99.90;;;;;;5079508;28;20225;-85
2022/11/17 00:41:57;;;;;;;0.10;0.10;;;10.00;99.90;;;;;;5077976;28;20185;-86
2022/11/17 00:44:23;;;;;;;0.10;0.10;;;10.10;99.90;;;;;;5098728;28;20575;-86
2022/11/17 00:46:49;;;;;;;0.10;0.10;;;9.90;99.90;;;;;;5103543;28;20218;-86
2022/11/17 00:49:15;;;;;;;0.10;0.10;;;9.90;99.90;;;;;;5101115;28;20188;-86
2022/11/17 00:51:41;;;;;;;0.10;0.10;;;9.80;99.90;;;;;;5083682;28;20192;-85
2022/11/17 00:54:09;;;;;;;0.10;0.10;;;9.90;99.90;;;;;;5101339;28;20217;-86
2022/11/17 00:56:34;;;;;;;0.10;0.10;;;10.00;99.90;;;;;;5111080;28;20191;-86
2022/11/17 00:59:00;;;;;;;0.00;0.00;;;10.10;99.90;;;;;;5093034;28;20675;-86
2022/11/17 01:01:26;;;;;;;0.10;0.10;;;10.10;99.90;;;;;;5110439;28;20661;-86
2022/11/17 01:04:01;;;;;;;0.10;0.10;;;9.90;99.90;;;;;;5091035;28;20175;-85
2022/11/17 01:06:30;;;;;;;0.10;0.10;;;9.90;99.90;;;;;;5107486;28;20181;-86
2022/11/17 01:08:59;;;;;;;0.00;0.00;;;9.90;99.90;;;;;;5103358;28;20177;-86
2022/11/17 01:11:24;;;;;;;0.10;0.10;;;9.90;99.90;;;;;;5106387;28;20227;-86
2022/11/17 01:13:54;;;;;;;0.10;0.10;;;10.00;99.90;;;;;;5096423;28;20589;-84
2022/11/17 01:16:20;;;;;;;0.10;0.10;;;10.10;99.90;;;;;;5089848;28;20179;-86
2022/11/17 01:18:47;;;;;;;0.10;0.10;;;10.20;99.90;;;;;;5099281;28;20287;-86
2022/11/17 01:21:16;;;;;;;0.10;0.10;;;10.20;99.90;;;;;;5103231;28;20566;-86
2022/11/17 01:23:43;;;;;;;0.10;0.10;;;10.40;99.90;;;;;;5106638;28;20171;-86
2022/11/17 01:26:14;;;;;;;0.10;0.10;;;10.30;99.90;;;;;;5103346;28;20214;-86
2022/11/17 01:28:40;;;;;;;0.10;0.10;;;10.30;99.90;;;;;;5101008;28;20178;-86
2022/11/17 01:31:17;;;;;;;0.10;0.10;;;10.30;99.90;;;;;;5101987;28;20212;-86
2022/11/17 01:33:43;;;;;;;0.10;0.10;;;10.20;99.90;;;;;;5094274;28;20195;-86
2022/11/17 01:37:17;;;;;;;0.10;0.10;;;10.10;99.90;;;;;;5099182;28;20195;-86
2022/11/17 01:39:16;;;;;;;0.10;0.10;;;10.10;99.90;;;;;;5101893;28;20196;-85
2022/11/17 01:41:41;;;;;;;0.10;0.10;;;10.00;99.90;;;;;;5107545;28;20168;-85
2022/11/17 01:44:46;;;;;;;0.00;0.00;;;10.10;99.90;;;;;;5101173;28;20242;-85
2022/11/17 01:47:40;;;;;;;0.10;0.10;;;10.10;99.90;;;;;;5099482;28;20186;-85
2022/11/17 01:50:38;;;;;;;0.10;0.10;;;10.10;99.90;;;;;;5085083;28;20676;-86
2022/11/17 01:53:13;;;;;;;0.10;0.10;;;10.10;99.90;;;;;;5076785;28;20278;-86
2022/11/17 01:55:53;;;;;;;0.10;0.10;;;10.10;99.90;;;;;;5097687;28;20324;-85
2022/11/17 01:58:27;;;;;;;0.10;0.10;;;10.20;99.90;;;;;;5094441;28;20202;-86
2022/11/17 02:00:54;;;;;;;0.10;0.10;;;10.40;99.90;;;;;;5106483;28;20214;-86
2022/11/17 02:03:20;;;;;;;0.10;0.10;;;10.40;99.90;;;;;;5090972;28;20184;-86
2022/11/17 02:05:57;;;;;;;0.10;0.10;;;10.40;99.90;;;;;;5098261;28;20269;-86
2022/11/17 02:08:26;;;;;;;0.10;0.10;;;10.30;99.90;;;;;;5087292;28;20326;-85
2022/11/17 02:10:52;;;;;;;0.10;0.10;;;10.40;99.90;;;;;;5100066;28;20572;-86
2022/11/17 02:13:20;;;;;;;0.10;0.10;;;10.50;99.90;;;;;;5093702;28;20685;-85
2022/11/17 02:15:46;;;;;;;0.10;0.10;;;10.60;99.90;;;;;;5103307;28;20192;-86
2022/11/17 02:18:12;;;;;;;0.10;0.10;;;10.70;99.90;;;;;;5101141;28;20183;-86
2022/11/17 02:20:53;;;;;;;0.03;0.03;;;10.60;99.90;;;;;;5094341;28;20284;-85
2022/11/17 02:23:56;;;;;;;0.10;0.10;;;10.40;99.90;;;;;;5104216;28;20202;-86
2022/11/17 02:26:47;;;;;;;0.10;0.10;;;10.10;99.90;;;;;;5084200;28;20187;-85
2022/11/17 02:29:36;;;;;;;0.00;0.00;;;10.10;99.90;;;;;;5105224;28;20190;-85
2022/11/17 02:32:26;;;;;;;0.10;0.10;;;9.90;99.90;;;;;;5105180;28;20184;-85
2022/11/17 02:35:06;;;;;;;0.10;0.10;;;9.70;99.90;;;;;;5100256;28;20269;-85
2022/11/17 02:37:46;;;;;;;0.10;0.10;;;9.50;99.90;;;;;;5087814;28;20270;-85
2022/11/17 02:40:21;;;;;;;0.10;0.10;;;9.40;99.90;;;;;;5107209;28;20694;-86
2022/11/17 02:46:14;;;;;;;0.10;0.10;;;9.50;99.90;;;;;;5096585;28;20191;-85
2022/11/17 02:48:46;;;;;;;0.10;0.10;;;9.50;99.90;;;;;;5092294;28;20175;-86
2022/11/17 02:51:17;;;;;;;0.00;0.00;;;9.50;99.90;;;;;;5090985;28;20211;-86
2022/11/17 02:53:43;;;;;;;0.10;0.10;;;9.50;99.90;;;;;;5102910;28;20178;-85
2022/11/17 02:56:09;;;;;;;0.10;0.10;;;9.50;99.90;;;;;;5096863;28;20248;-85
2022/11/17 02:58:34;;;;;;;0.10;0.10;;;9.50;99.90;;;;;;5101887;28;20191;-85
2022/11/17 03:01:06;;;;;;;0.10;0.10;;;9.70;99.90;;;;;;5087382;28;20300;-85
2022/11/17 03:03:54;;;;;;;0.10;0.10;;;9.70;99.90;;;;;;5087407;28;20184;-85
2022/11/17 03:06:41;;;;;;;0.10;0.10;;;9.70;99.90;;;;;;5099447;28;20528;-86
2022/11/17 03:09:24;;;;;;;0.10;0.10;;;9.70;99.90;;;;;;5104814;28;20197;-86
2022/11/17 03:11:58;;;;;;;0.10;0.10;;;9.80;99.90;;;;;;5095577;28;20256;-86
2022/11/17 03:14:29;;;;;;;0.10;0.10;;;9.80;99.90;;;;;;5107088;28;20175;-87
2022/11/17 03:17:07;;;;;;;0.10;0.10;;;9.80;99.90;;;;;;5103047;28;20721;-86
2022/11/17 03:19:42;;;;;;;0.10;0.10;;;9.60;99.90;;;;;;5090683;28;20210;-85
2022/11/17 03:22:16;;;;;;;0.10;0.10;;;9.60;99.90;;;;;;5107919;28;20270;-86
2022/11/17 03:24:48;;;;;;;0.00;0.00;;;9.50;99.90;;;;;;5088320;28;20179;-86
2022/11/17 03:27:24;;;;;;;0.10;0.10;;;9.60;99.90;;;;;;5106490;28;20180;-86
2022/11/17 03:29:53;;;;;;;0.10;0.10;;;9.60;99.90;;;;;;5093602;28;20202;-85
2022/11/17 03:32:22;;;;;;;0.10;0.10;;;9.60;99.90;;;;;;5108037;28;20605;-86
2022/11/17 03:35:02;;;;;;;0.10;0.10;;;9.60;99.90;;;;;;5098246;28;20182;-86
2022/11/17 03:37:31;;;;;;;0.10;0.10;;;9.60;99.90;;;;;;5095879;28;20183;-85
2022/11/17 03:40:03;;;;;;;0.10;0.10;;;9.60;99.90;;;;;;5104228;28;20243;-85
2022/11/17 03:42:32;;;;;;;0.10;0.10;;;9.60;99.90;;;;;;5086354;28;20178;-86
2022/11/17 03:45:21;;;;;;;0.10;0.10;;;9.60;99.90;;;;;;5088084;28;20189;-86
2022/11/17 03:47:50;;;;;;;0.10;0.10;;;9.80;99.90;;;;;;5097334;28;20178;-86
2022/11/17 03:50:40;;;;;;;0.10;0.10;;;9.90;99.90;;;;;;5105064;28;20204;-86
2022/11/17 03:53:05;;;;;;;0.10;0.10;;;10.10;99.90;;;;;;5101833;28;20218;-87
2022/11/17 03:55:53;;;;;;;0.10;0.10;;;10.10;99.90;;;;;;5080821;28;20209;-86
2022/11/17 03:58:23;;;;;;;0.10;0.10;;;10.20;99.90;;;;;;5090454;28;20192;-87
2022/11/17 04:00:52;;;;;;;0.10;0.10;;;10.30;99.90;;;;;;5084339;28;20215;-86
2022/11/17 04:03:20;;;;;;;0.10;0.10;;;10.40;99.90;;;;;;5101526;28;20188;-86
2022/11/17 04:05:47;;;;;;;0.10;0.10;;;10.30;99.90;;;;;;5093111;28;20635;-87
2022/11/17 04:08:13;;;;;;;0.10;0.10;;;10.30;99.90;;;;;;5086541;28;20180;-86
2022/11/17 04:16:20;;;;;;;0.10;0.10;;;10.40;99.90;;;;;;5089239;28;20595;-85
2022/11/17 04:18:46;;;;;;;0.00;0.00;;;10.50;99.90;;;;;;5100775;28;20187;-86
2022/11/17 04:21:11;;;;;;;0.10;0.10;;;10.60;99.90;;;;;;5079983;28;20257;-86
2022/11/17 04:23:37;;;;;;;0.10;0.10;;;10.60;99.90;;;;;;5093273;28;20185;-86
2022/11/17 04:28:48;;;;;;;0.10;0.10;;;10.70;99.90;;;;;;5089394;28;20596;-87
2022/11/17 04:31:17;;;;;;;0.10;0.10;;;10.60;99.90;;;;;;5090357;28;20239;-86
2022/11/17 04:33:54;;;;;;;0.10;0.10;;;10.40;99.90;;;;;;5107035;28;20196;-86
2022/11/17 04:36:23;;;;;;;0.10;0.10;;;10.50;99.90;;;;;;5096500;28;20222;-86
2022/11/17 04:38:51;;;;;;;0.00;0.00;;;10.30;99.90;;;;;;5089228;28;20757;-86
2022/11/17 04:44:04;;;;;;;0.10;0.10;;;10.10;99.90;;;;;;5099867;28;20240;-86
2022/11/17 04:46:31;;;;;;;0.10;0.10;;;10.20;99.90;;;;;;5096307;28;20262;-87
2022/11/17 04:48:58;;;;;;;0.10;0.10;;;10.30;99.90;;;;;;5100909;28;20181;-86
2022/11/17 04:51:24;;;;;;;0.10;0.10;;;10.40;99.90;;;;;;5090707;28;20205;-87
2022/11/17 04:53:50;;;;;;;0.10;0.10;;;10.50;99.90;;;;;;5092332;28;20188;-85
2022/11/17 04:56:18;;;;;;;0.10;0.10;;;10.60;99.90;;;;;;5100080;28;20215;-87
2022/11/17 04:58:43;;;;;;;0.10;0.10;;;10.70;99.90;;;;;;5099006;28;20204;-86
2022/11/17 05:01:12;;;;;;;0.10;0.10;;;10.70;99.90;;;;;;5102906;28;20231;-86
2022/11/17 05:03:46;;;;;;;0.10;0.10;;;10.80;99.90;;;;;;5086501;28;20222;-85
2022/11/17 05:06:19;;;;;;;0.10;0.10;;;10.80;99.90;;;;;;5106216;28;20239;-86
2022/11/17 05:08:45;;;;;;;0.10;0.10;;;10.80;99.90;;;;;;5084261;28;20259;-85
2022/11/17 05:13:58;;;;;;;0.10;0.10;;;10.80;99.90;;;;;;5093775;28;20232;-86
2022/11/17 05:19:11;;;;;;;0.10;0.10;;;10.70;99.90;;;;;;5105256;28;20214;-86
2022/11/17 05:21:37;;;;;;;0.10;0.10;;;10.70;99.90;;;;;;5079806;28;20189;-86
2022/11/17 05:24:03;;;;;;;0.00;0.00;;;10.70;99.90;;;;;;5090172;28;20181;-85
2022/11/17 05:26:31;;;;;;;0.00;0.00;;;10.70;99.90;;;;;;5091026;28;20717;-87
2022/11/17 05:28:59;;;;;;;0.10;0.10;;;10.70;99.90;;;;;;5103730;28;20270;-86
2022/11/17 05:31:26;;;;;;;0.10;0.10;;;10.70;99.90;;;;;;5102083;28;20169;-86
2022/11/17 05:33:52;;;;;;;0.10;0.10;;;10.70;99.90;;;;;;5107979;28;20176;-86
2022/11/17 05:36:18;;;;;;;0.10;0.10;;;10.70;99.90;;;;;;5101503;28;20656;-86
2022/11/17 05:38:46;;;;;;;0.10;0.10;;;10.70;99.90;;;;;;5109200;28;20194;-85
2022/11/17 05:41:12;;;;;;;0.10;0.10;;;10.70;99.90;;;;;;5093001;28;20202;-86
2022/11/17 05:43:37;;;;;;;0.10;0.10;;;10.60;99.90;;;;;;5096644;28;20180;-86
2022/11/17 05:46:03;;;;;;;0.10;0.10;;;10.50;99.90;;;;;;5096059;28;20187;-86
2022/11/17 05:48:29;;;;;;;0.00;0.00;;;10.40;99.90;;;;;;5107769;28;20172;-86
2022/11/17 05:50:55;;;;;;;0.10;0.10;;;10.50;99.90;;;;;;5104013;28;20202;-86
2022/11/17 05:53:22;;;;;;;0.10;0.10;;;10.60;99.90;;;;;;5094447;28;20193;-86
2022/11/17 05:55:47;;;;;;;0.10;0.10;;;10.70;99.90;;;;;;5100929;28;20182;-86
2022/11/17 05:58:22;;;;;;;0.10;0.10;;;10.70;99.90;;;;;;5092293;28;20191;-86
2022/11/17 06:00:50;;;;;;;0.10;0.10;;;10.70;99.90;;;;;;5090414;28;20202;-85
2022/11/17 06:03:21;;;;;;;0.10;0.10;;;10.70;99.90;;;;;;5109155;28;20216;-85
2022/11/17 06:05:46;;;;;;;0.10;0.10;;;10.70;99.90;;;;;;5098565;28;20267;-86
2022/11/17 06:08:12;;;;;;;0.10;0.10;;;10.80;99.90;;;;;;5084339;28;20238;-86
2022/11/17 06:10:38;;;;;;;0.10;0.10;;;10.80;99.90;;;;;;5097788;28;20669;-86
2022/11/17 06:13:04;;;;;;;0.10;0.10;;;10.70;99.90;;;;;;5095148;28;20541;-86
2022/11/17 06:15:30;;;;;;;0.10;0.10;;;10.70;99.90;;;;;;5098187;28;20185;-85
2022/11/17 06:18:04;;;;;;;0.10;0.10;;;10.70;99.90;;;;;;5099284;28;20178;-86
2022/11/17 06:20:33;;;;;;;0.00;0.00;;;10.70;99.90;;;;;;5095749;28;20321;-86
2022/11/17 06:23:03;;;;;;;0.10;0.10;;;10.70;99.90;;;;;;5097016;28;20199;-87
2022/11/17 06:25:29;;;;;;;0.10;0.10;;;10.70;99.90;;;;;;5095020;28;20168;-86
2022/11/17 06:27:57;;;;;;;0.00;0.00;;;10.70;99.90;;;;;;5095479;28;20208;-85
2022/11/17 06:30:22;;;;;;;0.10;0.10;;;10.70;99.90;;;;;;5102563;28;20202;-86
2022/11/17 06:32:49;;;;;;;0.10;0.10;;;10.70;99.90;;;;;;5094549;28;20176;-85
2022/11/17 06:35:15;;;;;;;0.10;0.10;;;10.70;99.90;;;;;;5109476;28;20203;-86
2022/11/17 06:37:41;;;;;;;0.10;0.10;;;10.70;99.90;;;;;;5090240;28;20207;-86
2022/11/17 06:40:08;;;;;;;0.10;0.10;;;10.70;99.90;;;;;;5109061;28;20203;-86
2022/11/17 06:45:21;;;;;;;0.10;0.10;;;10.70;99.90;;;;;;5084890;28;20199;-87
2022/11/17 06:47:47;;;;;;;0.10;0.10;;;10.70;99.90;;;;;;5085340;28;20176;-86
2022/11/17 06:50:12;;;;;;;0.10;0.10;;;10.70;99.90;;;;;;5102135;28;20640;-85
2022/11/17 06:52:38;;;;;;;0.10;0.10;;;10.80;99.90;;;;;;5098194;28;20173;-86
2022/11/17 06:55:04;;;;;;;0.10;0.10;;;10.70;99.90;;;;;;5103332;28;20274;-87
2022/11/17 06:57:29;;;;;;;0.00;0.00;;;10.70;99.90;;;;;;5104214;28;20222;-86
2022/11/17 06:59:55;;;;;;;0.10;0.10;;;10.70;99.90;;;;;;5090909;28;20248;-86
2022/11/17 07:02:20;;;;;;;0.10;0.10;;;10.70;99.90;;;;;;5099366;28;20175;-85
2022/11/17 07:04:46;;;;;;;0.10;0.10;;;10.70;99.90;;;;;;5101973;28;20172;-86
2022/11/17 07:07:12;;;;;;;0.03;0.03;;;10.70;99.90;;;;;;5094158;28;20229;-85
2022/11/17 07:09:37;;;;;;;0.10;0.10;;;10.70;99.90;;;;;;5098982;28;20211;-86
2022/11/17 07:12:03;;;;;;;0.10;0.10;;;10.70;99.90;;;;;;5089689;28;20640;-86
2022/11/17 07:14:28;;;;;;;0.10;0.10;;;10.80;99.90;;;;;;5105624;28;20183;-86
2022/11/17 07:16:54;;;;;;;0.10;0.10;;;10.80;99.90;;;;;;5085357;28;20232;-85
2022/11/17 07:19:20;;;;;;;0.00;0.00;;;10.80;99.90;;;;;;5091143;28;20208;-87
2022/11/17 07:21:45;;;;;;;0.10;0.10;;;10.90;99.90;;;;;;5097982;28;20267;-87
2022/11/17 07:24:11;;;;;;;0.10;0.10;;;11.00;99.90;;;;;;5103760;28;20206;-86
2022/11/17 07:26:36;;;;;;;0.10;0.10;;;11.00;99.90;;;;;;5089552;28;20202;-87
2022/11/17 07:29:02;;;;;;;0.10;0.10;;;11.10;99.90;;;;;;5090476;28;20240;-87
2022/11/17 07:31:27;;;;;;;0.10;0.10;;;11.10;99.90;;;;;;5109244;28;20990;-85
2022/11/17 07:33:53;;;;;;;0.10;0.10;;;11.10;99.90;;;;;;5090623;28;20172;-87
2022/11/17 07:36:19;;;;;;;0.10;0.10;;;11.20;99.90;;;;;;5105289;28;20173;-85
2022/11/17 07:38:44;;;;;;;0.10;0.10;;;11.20;99.90;;;;;;5091783;28;20172;-87
2022/11/17 07:41:12;;;;;;;0.10;0.10;;;11.40;99.90;;;;;;5088896;28;20257;-86
2022/11/17 07:43:39;;;;;;;0.10;0.10;;;11.40;99.90;;;;;;5104736;28;20168;-86
2022/11/17 07:46:06;;;;;;;0.10;0.10;;;11.50;99.90;;;;;;5093508;28;20188;-86
2022/11/17 07:48:32;;;;;;;0.10;0.10;;;11.50;99.90;;;;;;5090617;28;20200;-86
2022/11/17 07:50:58;;;;;;;0.10;0.10;;;11.50;99.90;;;;;;5093274;28;20205;-86
2022/11/17 07:53:24;;;;;;;0.10;0.10;;;11.60;99.90;;;;;;5089577;28;20179;-87
2022/11/17 07:55:49;;;;;;;0.10;0.10;;;11.60;99.90;;;;;;5099048;28;20190;-85
2022/11/17 07:58:15;;;;;;;0.00;0.00;;;11.60;99.90;;;;;;5091096;28;20192;-86
2022/11/17 08:00:40;;;;;;;0.10;0.10;;;11.50;99.90;;;;;;5092070;28;20697;-86
2022/11/17 08:03:06;;;;;;;0.10;0.10;;;11.40;99.90;;;;;;5104159;28;20188;-85
2022/11/17 08:05:37;;;;;;;0.10;0.10;;;11.40;99.90;;;;;;5094587;28;20258;-86
2022/11/17 08:08:04;;;;;;;0.10;0.10;;;11.40;99.90;;;;;;5080824;28;20204;-86
2022/11/17 08:10:30;;;;;;;0.10;0.10;;;11.30;99.90;;;;;;5102588;28;20191;-86
2022/11/17 08:12:57;;;;;;;0.10;0.10;;;11.30;99.90;;;;;;5088573;28;20271;-85
2022/11/17 08:15:23;;;;;;;0.10;0.10;;;11.30;99.90;;;;;;5101545;28;20657;-85
2022/11/17 08:17:54;;;;;;;0.10;0.10;;;11.30;99.90;;;;;;5097838;28;20267;-86
2022/11/17 08:20:20;;;;;;;0.10;0.10;;;11.30;99.90;;;;;;5090726;28;20243;-85
2022/11/17 08:22:48;;;;;;;0.10;0.10;;;11.30;99.90;;;;;;5096351;28;20270;-85
2022/11/17 08:25:14;;;;;;;0.10;0.10;;;11.30;99.90;;;;;;5082454;28;20177;-86
2022/11/17 08:27:40;;;;;;;0.10;0.10;;;11.30;99.90;;;;;;5102083;28;20180;-86
2022/11/17 08:30:08;;;;;;;0.10;0.10;;;11.30;99.90;;;;;;5103562;28;20213;-86
2022/11/17 08:32:34;;;;;;;0.10;0.10;;;11.30;99.90;;;;;;5105608;28;20179;-86
2022/11/17 08:35:00;;;;;;;0.10;0.10;;;11.30;99.90;;;;;;5100407;28;20217;-86
2022/11/17 08:37:26;;;;;;;0.10;0.10;;;11.40;99.90;;;;;;5098095;28;20270;-86
2022/11/17 08:39:51;;;;;;;0.10;0.10;;;11.40;99.90;;;;;;5096849;28;20214;-86
2022/11/17 08:42:17;;;;;;;0.10;0.10;;;11.40;99.90;;;;;;5087228;28;20188;-86
2022/11/17 08:44:42;;;;;;;0.10;0.10;;;11.50;99.90;;;;;;5101572;28;20187;-86
2022/11/17 08:47:08;;;;;;;0.10;0.10;;;11.50;99.90;;;;;;5085954;28;20181;-86
2022/11/17 08:49:33;;;;;;;0.10;0.10;;;11.50;99.90;;;;;;5078581;28;20199;-85
2022/11/17 08:51:59;;;;;;;0.10;0.10;;;11.60;99.90;;;;;;5095538;28;20286;-85
2022/11/17 08:54:24;;;;;;;0.10;0.10;;;11.60;99.90;;;;;;5093080;28;20173;-86
2022/11/17 08:56:50;;;;;;;0.10;0.10;;;11.70;99.90;;;;;;5094191;28;20226;-86
2022/11/17 08:59:15;;;;;;;0.00;0.00;;;11.70;99.90;;;;;;5090771;28;20243;-86
2022/11/17 09:01:41;;;;;;;0.10;0.10;;;11.70;99.90;;;;;;5090762;28;20208;-85
2022/11/17 09:04:07;;;;;;;0.10;0.10;;;11.80;99.90;;;;;;5088638;28;20190;-85
2022/11/17 09:06:32;;;;;;;0.10;0.10;;;11.90;99.90;;;;;;5115819;27;20664;-86
2022/11/17 09:08:58;;;;;;;0.10;0.10;;;12.00;99.90;;;;;;5105939;28;20188;-86
2022/11/17 09:11:24;;;;;;;0.10;0.10;;;12.10;99.90;;;;;;5105009;28;20192;-86
2022/11/17 09:13:49;;;;;;;0.10;0.10;;;12.20;99.90;;;;;;5106398;28;20175;-85
2022/11/17 09:16:15;;;;;;;0.10;0.10;;;12.20;99.90;;;;;;5090712;28;20267;-86
2022/11/17 09:18:42;;;;;;;0.10;0.10;;;12.30;99.90;;;;;;5103843;28;20190;-86
2022/11/17 09:21:16;;;;;;;0.10;0.10;;;12.50;99.90;;;;;;5089430;28;20208;-87
2022/11/17 09:23:42;;;;;;;0.10;0.10;;;12.60;99.90;;;;;;5104453;28;20182;-86
2022/11/17 09:26:11;;;;;;;0.10;0.10;;;12.80;99.90;;;;;;5087267;28;20177;-85
2022/11/17 09:28:37;;;;;;;0.10;0.10;;;12.90;99.90;;;;;;5102721;28;20211;-86
2022/11/17 09:31:07;;;;;;;0.00;0.00;;;12.80;99.90;;;;;;5098449;28;20216;-85
2022/11/17 09:33:33;;;;;;;0.10;0.10;;;12.80;99.90;;;;;;5108214;27;20176;-85
2022/11/17 09:35:59;;;;;;;0.10;0.10;;;12.70;99.90;;;;;;5099330;28;20666;-86
2022/11/17 09:38:25;;;;;;;0.10;0.10;;;12.80;99.90;;;;;;5095945;28;20181;-85
2022/11/17 09:40:53;;;;;;;0.10;0.10;;;12.90;99.90;;;;;;5095054;28;20200;-85
2022/11/17 09:43:32;;;;;;;0.10;0.10;;;13.00;99.90;;;;;;5110367;28;20177;-86
2022/11/17 09:46:26;;;;;;;0.00;0.00;;;13.20;99.90;;;;;;5091201;28;20176;-85
2022/11/17 09:49:05;;;;;;;0.10;0.10;;;13.40;99.90;;;;;;5095870;28;20180;-85
2022/11/17 09:51:33;;;;;;;0.10;0.10;;;13.40;99.90;;;;;;5093898;28;20695;-86
2022/11/17 09:54:22;;;;;;;0.10;0.10;;;13.50;99.90;;;;;;5093353;28;20183;-86
2022/11/17 09:56:49;;;;;;;0.10;0.10;;;13.60;99.90;;;;;;5094395;28;20242;-86
2022/11/17 09:59:19;;;;;;;0.10;0.10;;;13.60;99.90;;;;;;5093641;28;20282;-86
2022/11/17 10:01:45;;;;;;;0.10;0.10;;;13.70;99.90;;;;;;5109603;28;20173;-85
2022/11/17 10:04:13;;;;;;;0.10;0.10;;;13.80;99.90;;;;;;5111530;28;20610;-86
2022/11/17 10:06:43;;;;;;;0.10;0.10;;;14.30;99.90;;;;;;5094444;28;20240;-86
2022/11/17 10:09:34;;;;;;;0.10;0.10;;;14.80;99.90;;;;;;5089978;28;20211;-85
2022/11/17 10:12:13;;;;;;;0.10;0.10;;;14.50;99.90;;;;;;5093394;28;20177;-86
2022/11/17 10:14:39;;;;;;;0.10;0.10;;;14.10;99.90;;;;;;5096622;28;20181;-86
2022/11/17 10:17:05;;;;;;;0.10;0.10;;;13.90;99.90;;;;;;5090778;28;20200;-86
2022/11/17 10:19:32;;;;;;;0.00;0.00;;;13.80;99.90;;;;;;5108605;28;20232;-84
2022/11/17 10:22:01;;;;;;;0.10;0.10;;;13.60;99.90;;;;;;5108139;28;20175;-86
2022/11/17 10:24:42;;;;;;;0.10;0.10;;;13.60;99.90;;;;;;5091017;28;20173;-86
2022/11/17 10:27:16;;;;;;;0.10;0.10;;;13.50;99.90;;;;;;5109541;28;20799;-86
2022/11/17 10:30:03;;;;;;;0.10;0.10;;;13.40;99.90;;;;;;5084606;28;20250;-86
2022/11/17 10:32:37;;;;;;;0.10;0.10;;;13.40;99.90;;;;;;5080553;28;20473;-85
2022/11/17 10:35:20;;;;;;;0.10;0.10;;;13.50;99.90;;;;;;5087289;28;20230;-85
2022/11/17 10:37:58;;;;;;;0.10;0.10;;;13.50;99.90;;;;;;5094663;28;20204;-86
2022/11/17 10:40:28;;;;;;;0.10;0.10;;;13.50;99.90;;;;;;5106283;28;20205;-85
2022/11/17 10:43:00;;;;;;;0.10;0.10;;;13.60;99.90;;;;;;5097332;28;20583;-85
2022/11/17 10:45:26;;;;;;;0.10;0.10;;;13.60;99.90;;;;;;5105594;28;20192;-86
2022/11/17 10:48:08;;;;;;;0.10;0.10;;;13.70;99.90;;;;;;5100032;28;20176;-87
2022/11/17 10:50:34;;;;;;;0.10;0.10;;;13.80;99.90;;;;;;5089402;28;20201;-86
2022/11/17 10:53:23;;;;;;;0.10;0.10;;;13.80;99.90;;;;;;5106786;28;20186;-85
2022/11/17 10:55:55;;;;;;;0.00;0.00;;;13.70;99.90;;;;;;5106932;28;20179;-86
2022/11/17 10:58:30;;;;;;;0.10;0.10;;;13.70;99.90;;;;;;5095100;28;20238;-86
2022/11/17 11:00:58;;;;;;;0.10;0.10;;;13.70;99.90;;;;;;5102543;28;20757;-87
2022/11/17 11:03:30;;;;;;;0.10;0.10;;;13.70;99.90;;;;;;5091951;28;20176;-86
2022/11/17 11:06:30;;;;;;;0.00;0.00;;;13.70;99.90;;;;;;5106718;28;20185;-86
2022/11/17 11:09:00;;;;;;;0.10;0.10;;;13.70;99.90;;;;;;5050182;28;20600;-85
2022/11/17 11:11:41;;;;;;;0.10;0.10;;;13.80;99.90;;;;;;5102600;28;20184;-86
2022/11/17 11:14:19;;;;;;;0.10;0.10;;;13.90;99.90;;;;;;5089241;28;20271;-86
2022/11/17 11:16:46;;;;;;;0.10;0.10;;;14.00;99.90;;;;;;5096529;28;20173;-85
2022/11/17 11:19:14;;;;;;;0.10;0.10;;;14.00;99.90;;;;;;5083744;28;20189;-85
2022/11/17 11:22:18;;;;;;;0.10;0.10;;;14.20;99.90;;;;;;5106904;28;20168;-86
2022/11/17 11:24:54;;;;;;;0.10;0.10;;;14.20;99.90;;;;;;5099011;28;20223;-86
2022/11/17 11:27:26;;;;;;;0.10;0.10;;;14.20;99.90;;;;;;5089421;28;20830;-86
2022/11/17 11:30:05;;;;;;;0.10;0.10;;;14.20;99.90;;;;;;5113187;28;20567;-85
2022/11/17 11:32:55;;;;;;;0.10;0.10;;;14.10;99.90;;;;;;5092645;28;20222;-85
2022/11/17 11:35:31;;;;;;;0.10;0.10;;;13.80;99.90;;;;;;5107685;28;20184;-85
2022/11/17 11:38:22;;;;;;;0.10;0.10;;;13.90;99.90;;;;;;5093409;28;20254;-86
2022/11/17 11:41:20;;;;;;;0.10;0.10;;;14.00;99.90;;;;;;5061223;28;20245;-86
2022/11/17 11:44:00;;;;;;;0.10;0.10;;;14.10;99.90;;;;;;5079278;27;20278;-85
2022/11/17 11:46:47;;;;;;;0.10;0.10;;;14.10;99.90;;;;;;5093395;28;20186;-86
2022/11/17 11:49:33;;;;;;;0.10;0.10;;;14.20;99.90;;;;;;5074535;28;20203;-86
2022/11/17 11:52:00;;;;;;;0.10;0.10;;;14.20;99.90;;;;;;5082596;28;20184;-86
2022/11/17 11:54:40;;;;;;;0.10;0.10;;;14.20;99.90;;;;;;5104026;28;20244;-85
2022/11/17 11:57:11;;;;;;;0.10;0.10;;;14.20;99.90;;;;;;5100553;28;20218;-86
2022/11/17 12:00:03;;;;;;;0.10;0.10;;;14.20;99.90;;;;;;5089630;28;20208;-86
2022/11/17 12:02:54;;;;;;;0.10;0.10;;;14.30;99.90;;;;;;5087472;28;20184;-86
2022/11/17 12:05:27;;;;;;;0.20;0.20;;;14.40;99.90;;;;;;5092330;28;20180;-86
2022/11/17 12:08:12;;;;;;;0.10;0.10;;;14.70;99.90;;;;;;5090809;28;20244;-85
2022/11/17 12:10:46;;;;;;;0.10;0.10;;;15.00;99.90;;;;;;5093460;28;20279;-85
2022/11/17 12:13:14;;;;;;;0.10;0.10;;;15.00;99.90;;;;;;5084375;28;20208;-87
2022/11/17 12:15:40;;;;;;;0.10;0.10;;;15.00;99.90;;;;;;5100234;28;20255;-86
2022/11/17 12:18:15;;;;;;;0.10;0.10;;;15.00;99.90;;;;;;5103575;28;20285;-85
2022/11/17 12:20:54;;;;;;;0.10;0.10;;;15.20;99.90;;;;;;5090356;28;20692;-86
2022/11/17 12:23:33;;;;;;;0.10;0.10;;;15.30;99.90;;;;;;5106536;28;20175;-86
2022/11/17 12:26:00;;;;;;;0.10;0.10;;;15.20;99.90;;;;;;5101953;28;20643;-86
2022/11/17 12:28:35;;;;;;;0.10;0.10;;;15.10;99.90;;;;;;5094722;28;20184;-86
2022/11/17 12:31:31;;;;;;;0.10;0.10;;;14.90;99.90;;;;;;5087127;28;20211;-86
2022/11/17 12:33:59;;;;;;;0.10;0.10;;;15.00;99.90;;;;;;5072203;28;20549;-87
2022/11/17 12:36:32;;;;;;;0.10;0.10;;;14.90;99.90;;;;;;5093730;28;20192;-86
2022/11/17 12:39:00;;;;;;;0.10;0.10;;;14.80;99.90;;;;;;5089003;28;20194;-86
2022/11/17 12:41:47;;;;;;;0.10;0.10;;;14.70;99.90;;;;;;5106253;28;20548;-87
2022/11/17 12:44:42;;;;;;;0.10;0.10;;;14.80;99.90;;;;;;5101393;28;20194;-86
2022/11/17 12:47:32;;;;;;;0.10;0.10;;;14.70;99.90;;;;;;5104679;28;20175;-86
2022/11/17 12:50:16;;;;;;;0.10;0.10;;;14.40;99.90;;;;;;5105397;28;20292;-87
2022/11/17 12:53:11;;;;;;;0.10;0.10;;;14.40;99.90;;;;;;5087943;28;20175;-86
2022/11/17 12:56:00;;;;;;;0.10;0.10;;;14.40;99.90;;;;;;5098866;28;20172;-86
2022/11/17 12:58:39;;;;;;;0.10;0.10;;;14.40;99.90;;;;;;5081302;28;20220;-86
2022/11/17 13:01:18;;;;;;;0.10;0.10;;;14.40;99.90;;;;;;5090877;28;20206;-86
2022/11/17 13:04:09;;;;;;;0.10;0.10;;;14.20;99.90;;;;;;5102852;28;20184;-86
2022/11/17 13:06:35;;;;;;;0.10;0.10;;;14.00;99.90;;;;;;5105700;28;20187;-86
2022/11/17 13:09:06;;;;;;;0.10;0.10;;;14.00;99.90;;;;;;5099339;28;20182;-86
2022/11/17 13:11:32;;;;;;;11.33;10.83;;;13.90;99.90;;;;;;5095878;28;20156;-86
2022/11/17 13:14:16;;;;;;;0.10;0.10;;;13.80;99.90;;;;;;5112497;28;20180;-86
2022/11/17 13:16:45;;;;;;;0.10;0.10;;;13.80;99.90;;;;;;5101019;28;20182;-85
2022/11/17 13:19:31;;;;;;;0.10;0.10;;;13.70;99.90;;;;;;5107856;28;20271;-86
2022/11/17 13:22:17;;;;;;;0.10;0.10;;;13.60;99.90;;;;;;5103267;28;20178;-86
2022/11/17 13:24:48;;;;;;;0.10;0.10;;;13.60;99.90;;;;;;5101923;28;20175;-86
2022/11/17 13:27:22;;;;;;;0.10;0.10;;;13.60;99.90;;;;;;5109948;28;20177;-85
2022/11/17 13:29:49;;;;;;;0.10;0.10;;;13.70;99.90;;;;;;5101488;28;20202;-86
2022/11/17 13:32:21;;;;;;;0.10;0.10;;;13.60;99.90;;;;;;5109718;28;20553;-87
2022/11/17 13:34:55;;;;;;;0.10;0.10;;;13.70;99.90;;;;;;5105840;28;20699;-86
2022/11/17 13:37:26;;;;;;;0.10;0.10;;;13.80;99.90;;;;;;5087885;28;20189;-86
2022/11/17 13:40:00;;;;;;;0.10;0.10;;;14.10;99.90;;;;;;5099682;28;20203;-86
2022/11/17 13:42:29;;;;;;;0.10;0.10;;;14.30;99.90;;;;;;5085930;28;20181;-86